Time;durP1;ratioP1;P1;durP2;ratioP2;P2;SDS_P1;SDS_P2;PMS_P1;PMS_P2;Temp;Humidity;BMP_temperature;BMP_pressure;BME280_temperature;BME280_humidity;BME280_pressure;Samples;Min_cycle;Max_cycle;Signal;HPM_P1;HPM_P2
2021/05/19 05:45:10;;;;;;;11.80;6.55;;;18.40;79.90;;;;;;5069219;28;20127;-66
2021/05/19 05:47:36;;;;;;;8.70;5.88;;;18.60;78.50;;;;;;5076376;28;20017;-57
2021/05/19 05:50:04;;;;;;;6.72;5.43;;;18.60;77.20;;;;;;5084041;28;20046;-57
2021/05/19 05:52:30;;;;;;;6.13;5.28;;;18.60;76.00;;;;;;5086576;28;20024;-56
2021/05/19 05:54:56;;;;;;;7.03;4.70;;;18.60;76.00;;;;;;5082035;28;20023;-57
2021/05/19 05:57:22;;;;;;;5.53;3.78;;;18.50;75.90;;;;;;5081661;28;20032;-57
2021/05/19 05:59:48;;;;;;;6.57;4.40;;;18.60;76.10;;;;;;5074532;28;20051;-54
2021/05/19 06:02:14;;;;;;;8.35;4.50;;;18.60;76.20;;;;;;5077010;28;20036;-58
2021/05/19 06:04:39;;;;;;;6.05;4.57;;;18.60;75.80;;;;;;5083908;28;20032;-58
2021/05/19 06:10:27;;;;;;;5.03;3.53;;;18.50;75.80;;;;;;5079835;28;20460;-55
2021/05/19 06:12:52;;;;;;;5.32;3.70;;;18.60;75.90;;;;;;5071623;28;20027;-55
2021/05/19 06:15:18;;;;;;;4.10;3.63;;;18.60;75.50;;;;;;5082652;28;20126;-58
2021/05/19 06:17:44;;;;;;;6.43;3.92;;;18.70;75.80;;;;;;5076894;28;20035;-58
2021/05/19 06:20:10;;;;;;;5.32;3.83;;;18.70;75.80;;;;;;5077181;28;20445;-56
2021/05/19 06:22:36;;;;;;;4.53;3.25;;;18.80;75.30;;;;;;5081857;28;20024;-57
2021/05/19 06:25:02;;;;;;;5.35;3.78;;;18.90;75.10;;;;;;5085710;28;20042;-55
2021/05/19 06:27:27;;;;;;;3.83;3.40;;;18.90;74.40;;;;;;5083046;28;20036;-55
2021/05/19 06:29:53;;;;;;;4.80;4.03;;;18.90;74.70;;;;;;5084246;28;20024;-57
2021/05/19 06:32:19;;;;;;;5.70;3.70;;;18.90;74.40;;;;;;5084940;28;20024;-53
2021/05/19 06:34:44;;;;;;;5.72;3.50;;;18.90;74.50;;;;;;5086348;28;20047;-52
2021/05/19 06:37:10;;;;;;;4.50;3.30;;;19.00;74.60;;;;;;5079115;28;20042;-55
2021/05/19 06:39:36;;;;;;;4.18;3.28;;;19.00;74.50;;;;;;5081605;28;20040;-56
2021/05/19 06:42:02;;;;;;;3.53;3.20;;;19.10;73.70;;;;;;5082253;28;20032;-59
2021/05/19 06:44:28;;;;;;;4.97;3.08;;;19.10;73.50;;;;;;5082936;28;20048;-56
2021/05/19 06:46:54;;;;;;;4.05;3.40;;;19.10;73.30;;;;;;5083259;28;20028;-55
2021/05/19 06:49:19;;;;;;;5.20;3.70;;;18.90;73.20;;;;;;5088221;28;20035;-56
2021/05/19 06:51:46;;;;;;;5.50;3.40;;;18.90;73.80;;;;;;5084291;28;20028;-54
2021/05/19 06:54:12;;;;;;;5.88;3.70;;;18.90;74.90;;;;;;5085446;28;20395;-57
2021/05/19 06:56:44;;;;;;;6.20;3.75;;;19.00;75.00;;;;;;5081751;28;20024;-64
2021/05/19 06:59:14;;;;;;;4.75;3.47;;;19.10;74.60;;;;;;5078757;28;20036;-67
2021/05/19 07:01:40;;;;;;;4.45;3.15;;;19.20;74.20;;;;;;5076107;28;20160;-63
2021/05/19 07:04:06;;;;;;;3.85;3.10;;;19.20;73.70;;;;;;5036520;28;20399;-63
2021/05/19 07:06:32;;;;;;;3.58;3.28;;;19.30;73.50;;;;;;5078677;28;20029;-63
2021/05/19 07:08:58;;;;;;;4.80;3.05;;;19.40;73.00;;;;;;5083518;28;20028;-65
2021/05/19 07:11:24;;;;;;;4.55;3.38;;;19.40;72.60;;;;;;5076538;28;20028;-65
2021/05/19 07:13:52;;;;;;;6.40;4.40;;;19.30;72.50;;;;;;5078370;28;20032;-66
2021/05/19 07:16:21;;;;;;;6.63;3.67;;;19.20;72.60;;;;;;5076140;28;23381;-65
2021/05/19 07:18:47;;;;;;;7.70;4.03;;;19.20;72.70;;;;;;5078195;28;20012;-67
2021/05/19 07:21:12;;;;;;;5.85;4.70;;;19.30;73.10;;;;;;5080636;28;20042;-64
2021/05/19 07:23:38;;;;;;;5.65;3.95;;;19.30;73.50;;;;;;5085902;28;20024;-64
2021/05/19 07:26:04;;;;;;;7.13;4.32;;;19.40;73.40;;;;;;5078843;28;20032;-64
2021/05/19 07:28:30;;;;;;;5.47;4.10;;;19.40;73.30;;;;;;5076108;28;20020;-66
2021/05/19 07:30:56;;;;;;;4.97;4.05;;;19.60;72.90;;;;;;5079587;28;20041;-65
2021/05/19 07:33:22;;;;;;;5.60;4.47;;;19.60;72.70;;;;;;5075890;28;20411;-64
2021/05/19 07:35:48;;;;;;;5.43;4.22;;;19.80;72.50;;;;;;5074179;28;20032;-66
2021/05/19 07:38:14;;;;;;;8.57;3.90;;;19.90;72.10;;;;;;5075382;28;20052;-63
2021/05/19 07:40:40;;;;;;;4.32;3.42;;;19.90;71.70;;;;;;5075885;28;20504;-66
2021/05/19 07:43:06;;;;;;;4.35;2.90;;;20.00;71.60;;;;;;5079679;28;20165;-68
2021/05/19 07:45:33;;;;;;;4.90;3.10;;;20.10;71.10;;;;;;5063422;28;20032;-62
2021/05/19 07:47:58;;;;;;;5.30;3.42;;;20.10;71.00;;;;;;5078983;28;20527;-65
2021/05/19 07:50:25;;;;;;;3.30;2.95;;;20.10;71.20;;;;;;5076736;28;20048;-64
2021/05/19 07:52:51;;;;;;;4.47;2.95;;;20.10;70.90;;;;;;5076271;28;20113;-65
2021/05/19 07:55:23;;;;;;;3.28;2.97;;;20.10;70.70;;;;;;5069383;28;20387;-62
2021/05/19 07:57:59;;;;;;;5.85;3.20;;;20.00;70.70;;;;;;5073716;28;21362;-66
2021/05/19 08:02:59;;;;;;;4.65;2.95;;;19.90;70.90;;;;;;5076856;28;20030;-65
2021/05/19 08:05:25;;;;;;;4.05;3.15;;;19.90;71.00;;;;;;5078110;28;20032;-66
2021/05/19 08:07:51;;;;;;;5.75;3.22;;;19.80;70.80;;;;;;5067009;28;20046;-66
2021/05/19 08:10:16;;;;;;;4.50;3.10;;;19.80;71.10;;;;;;5072602;28;20024;-64
2021/05/19 08:12:42;;;;;;;3.53;2.70;;;19.70;71.40;;;;;;5074048;28;21167;-63
2021/05/19 08:15:08;;;;;;;3.03;2.70;;;19.70;71.50;;;;;;5073217;28;20502;-65
2021/05/19 08:17:34;;;;;;;3.47;2.60;;;19.70;71.70;;;;;;5073125;28;20052;-67
2021/05/19 08:20:00;;;;;;;3.83;2.83;;;19.60;71.50;;;;;;5068677;28;20122;-65
2021/05/19 08:22:26;;;;;;;4.05;2.80;;;19.60;72.00;;;;;;5050633;28;20491;-65
2021/05/19 08:24:51;;;;;;;4.45;2.92;;;19.60;72.10;;;;;;5058324;28;20031;-64
2021/05/19 08:27:17;;;;;;;3.65;2.72;;;19.50;71.80;;;;;;5061783;28;20036;-65
2021/05/19 08:29:43;;;;;;;2.72;2.53;;;19.40;72.10;;;;;;5067019;28;20914;-65
2021/05/19 08:32:09;;;;;;;3.65;2.60;;;19.40;72.50;;;;;;5071586;28;20024;-64
2021/05/19 08:34:35;;;;;;;4.05;2.72;;;19.30;72.70;;;;;;5070755;28;20064;-66
2021/05/19 08:37:02;;;;;;;4.82;2.38;;;19.30;73.00;;;;;;5071474;28;20106;-64
2021/05/19 08:39:28;;;;;;;2.63;2.40;;;19.20;73.00;;;;;;5069670;28;20031;-58
2021/05/19 08:41:53;;;;;;;3.72;2.75;;;19.10;73.10;;;;;;5074489;28;20044;-65
2021/05/19 08:44:20;;;;;;;2.92;2.35;;;19.10;73.30;;;;;;5076127;28;20039;-67
2021/05/19 08:46:50;;;;;;;4.32;2.60;;;19.00;73.10;;;;;;5069687;28;20763;-66
2021/05/19 08:49:17;;;;;;;2.53;2.33;;;19.00;72.90;;;;;;5069095;28;20025;-64
2021/05/19 08:51:44;;;;;;;2.92;2.65;;;18.90;72.70;;;;;;5072368;28;20160;-60
2021/05/19 08:54:12;;;;;;;3.13;2.28;;;18.90;72.60;;;;;;5074606;28;20025;-66
2021/05/19 08:56:42;;;;;;;3.45;2.55;;;18.80;73.20;;;;;;5076327;28;20428;-65
2021/05/19 08:59:09;;;;;;;2.60;2.40;;;18.80;73.70;;;;;;5072970;28;20534;-64
2021/05/19 09:01:43;;;;;;;3.78;2.40;;;18.80;74.20;;;;;;5047645;28;20028;-65
2021/05/19 09:04:22;;;;;;;4.18;2.88;;;18.80;74.20;;;;;;5075146;28;20099;-66
2021/05/19 09:06:59;;;;;;;2.58;2.38;;;18.80;73.90;;;;;;5073444;28;20029;-65
2021/05/19 09:09:30;;;;;;;3.38;2.58;;;18.80;74.20;;;;;;5073837;28;20486;-65
2021/05/19 09:12:00;;;;;;;;;;;18.70;74.50;;;;;;5071506;28;20046;-64
2021/05/19 09:14:29;;;;;;;5.30;3.38;;;18.70;74.80;;;;;;5076662;28;20367;-65
2021/05/19 09:17:15;;;;;;;6.25;3.92;;;18.70;75.10;;;;;;5075805;28;20476;-63
2021/05/19 09:19:41;;;;;;;6.47;4.07;;;18.70;75.30;;;;;;5072377;28;21263;-64
2021/05/19 09:22:24;;;;;;;5.85;4.13;;;18.60;75.70;;;;;;5075854;28;20140;-64
2021/05/19 09:24:53;;;;;;;6.15;4.10;;;18.50;75.50;;;;;;5070283;28;20104;-65
2021/05/19 09:27:19;;;;;;;5.55;4.10;;;18.50;75.50;;;;;;5067523;28;20032;-65
2021/05/19 09:29:50;;;;;;;5.03;3.58;;;18.40;75.50;;;;;;5075134;28;20128;-66
2021/05/19 09:32:17;;;;;;;;;;;18.50;75.40;;;;;;5073226;28;20118;-66
2021/05/19 09:34:50;;;;;;;6.53;4.25;;;18.40;74.80;;;;;;5066849;28;19916;-65
2021/05/19 09:37:26;;;;;;;5.93;4.78;;;18.40;75.50;;;;;;5070772;28;20024;-65
2021/05/19 09:39:53;;;;;;;6.55;4.82;;;18.50;75.70;;;;;;5071556;28;20032;-64
2021/05/19 09:42:22;;;;;;;7.28;5.50;;;18.50;76.00;;;;;;5075881;28;20095;-65
2021/05/19 09:44:49;;;;;;;7.60;5.35;;;18.50;75.80;;;;;;5071993;28;20040;-65
2021/05/19 09:47:36;;;;;;;6.82;6.00;;;18.50;76.00;;;;;;5074472;28;20099;-64
2021/05/19 09:50:02;;;;;;;8.15;6.07;;;18.50;76.20;;;;;;5078873;28;20650;-65
2021/05/19 09:52:28;;;;;;;10.38;6.75;;;18.40;76.20;;;;;;5077501;28;20054;-64
2021/05/19 09:55:08;;;;;;;9.43;7.68;;;18.40;76.30;;;;;;5078503;28;20032;-66
2021/05/19 09:57:42;;;;;;;8.55;7.13;;;18.40;76.40;;;;;;5078837;28;20484;-65
2021/05/19 10:00:11;;;;;;;9.50;7.63;;;18.40;76.60;;;;;;5077453;28;20115;-66
2021/05/19 10:02:36;;;;;;;12.30;8.90;;;18.50;76.90;;;;;;5079927;28;20043;-66
2021/05/19 10:07:57;;;;;;;9.32;7.45;;;18.50;76.90;;;;;;5028208;28;20040;-66
2021/05/19 10:10:24;;;;;;;9.93;8.18;;;18.60;76.30;;;;;;5077935;28;20500;-66
2021/05/19 10:12:50;;;;;;;9.07;7.57;;;18.60;76.50;;;;;;5079458;28;20027;-66
2021/05/19 10:15:26;;;;;;;9.90;7.68;;;18.60;76.10;;;;;;5079932;28;20380;-65
2021/05/19 10:18:15;;;;;;;10.65;7.70;;;18.60;75.90;;;;;;5072609;28;20427;-66
2021/05/19 10:20:43;;;;;;;11.45;9.07;;;18.60;76.00;;;;;;5076279;28;20031;-66
2021/05/19 10:23:11;;;;;;;11.45;9.43;;;18.50;76.30;;;;;;5077186;28;20119;-65
2021/05/19 10:25:40;;;;;;;13.45;9.85;;;18.50;76.30;;;;;;5056817;28;20031;-66
2021/05/19 10:28:16;;;;;;;11.98;10.02;;;18.50;76.40;;;;;;5075773;28;20034;-67
2021/05/19 10:30:50;;;;;;;10.45;8.30;;;18.40;76.70;;;;;;5069551;28;20036;-67
2021/05/19 10:33:40;;;;;;;14.10;9.85;;;18.40;76.50;;;;;;5077651;28;20464;-67
2021/05/19 10:36:23;;;;;;;12.00;9.13;;;18.30;76.50;;;;;;5076314;28;20470;-66
2021/05/19 10:41:46;;;;;;;13.48;9.82;;;18.20;76.90;;;;;;5076051;28;20131;-66
2021/05/19 10:44:17;;;;;;;12.25;9.40;;;18.20;77.20;;;;;;5072093;28;20063;-66
2021/05/19 10:46:52;;;;;;;12.90;8.63;;;18.20;76.90;;;;;;5073980;28;20403;-67
2021/05/19 10:49:19;;;;;;;13.82;8.88;;;18.10;76.60;;;;;;5075923;28;20024;-66
2021/05/19 10:58:00;;;;;;;10.95;8.27;;;18.10;76.70;;;;;;5070595;28;20082;-65
2021/05/19 11:00:28;;;;;;;9.15;8.02;;;18.00;76.90;;;;;;5075666;28;20041;-66
2021/05/19 11:02:54;;;;;;;11.95;10.27;;;18.00;76.30;;;;;;5079841;28;20468;-66
2021/05/19 11:05:31;;;;;;;15.77;11.45;;;18.00;77.00;;;;;;5079335;28;20039;-65
2021/05/19 11:08:05;;;;;;;14.68;10.55;;;18.00;77.10;;;;;;5074034;28;20023;-66
2021/05/19 11:10:53;;;;;;;14.50;12.52;;;18.00;77.00;;;;;;5072416;28;20101;-66
2021/05/19 11:13:22;;;;;;;12.75;9.73;;;18.10;77.50;;;;;;5064749;28;20032;-66
2021/05/19 11:21:34;;;;;;;;;;;18.10;76.60;;;;;;5079692;28;20115;-62
2021/05/19 11:24:02;;;;;;;10.10;7.82;;;18.10;76.50;;;;;;5064539;28;19920;-65
2021/05/19 11:26:35;;;;;;;10.10;7.65;;;18.10;76.50;;;;;;5078553;28;20072;-63
2021/05/19 11:29:02;;;;;;;10.70;7.68;;;18.10;76.20;;;;;;5074301;28;20032;-66
2021/05/19 11:31:34;;;;;;;9.50;6.53;;;18.20;76.20;;;;;;5076704;28;20363;-64
2021/05/19 11:34:03;;;;;;;9.10;6.43;;;18.20;75.90;;;;;;5072707;28;20028;-63
2021/05/19 11:36:44;;;;;;;6.07;4.88;;;18.20;75.50;;;;;;5055989;28;20024;-65
2021/05/19 11:39:34;;;;;;;6.70;5.13;;;18.20;75.20;;;;;;5077504;28;20027;-65
2021/05/19 11:42:19;;;;;;;7.40;6.23;;;18.20;74.90;;;;;;5075412;28;20036;-66
2021/05/19 11:44:49;;;;;;;9.27;7.07;;;18.20;74.80;;;;;;5071837;28;20285;-66
2021/05/19 11:47:20;;;;;;;10.88;8.20;;;18.20;75.20;;;;;;5070432;28;20475;-63
2021/05/19 11:49:46;;;;;;;10.70;7.65;;;18.20;75.50;;;;;;5074400;28;20379;-65
2021/05/19 11:52:12;;;;;;;10.10;7.88;;;18.10;75.40;;;;;;5072183;28;20479;-66
2021/05/19 11:54:42;;;;;;;10.05;8.15;;;18.10;75.70;;;;;;5069457;28;20031;-65
2021/05/19 11:57:10;;;;;;;;;;;18.10;75.30;;;;;;5069330;28;20060;-65
2021/05/19 11:59:38;;;;;;;9.75;8.60;;;18.00;75.50;;;;;;5065284;28;19915;-65
2021/05/19 12:02:08;;;;;;;9.73;6.90;;;18.00;75.90;;;;;;5051735;28;20424;-66
2021/05/19 12:04:36;;;;;;;7.32;6.22;;;18.00;75.30;;;;;;5077518;28;20032;-65
2021/05/19 12:07:05;;;;;;;9.18;7.70;;;18.10;75.00;;;;;;5062040;28;20039;-66
2021/05/19 12:09:36;;;;;;;9.63;6.97;;;18.00;75.20;;;;;;5072505;28;20032;-64
2021/05/19 12:12:10;;;;;;;10.35;6.90;;;18.10;75.30;;;;;;5072541;28;20687;-66
2021/05/19 12:14:37;;;;;;;9.30;7.10;;;18.10;75.50;;;;;;5069206;28;20059;-66
2021/05/19 12:17:04;;;;;;;9.75;7.07;;;18.10;75.50;;;;;;5049071;28;20028;-66
2021/05/19 12:19:38;;;;;;;9.07;6.82;;;18.20;76.00;;;;;;5074586;28;20041;-67
2021/05/19 12:22:19;;;;;;;7.63;6.53;;;18.30;75.00;;;;;;5074784;28;20488;-65
2021/05/19 12:24:45;;;;;;;9.15;6.65;;;18.40;75.20;;;;;;5070970;28;20028;-65
2021/05/19 12:27:16;;;;;;;7.97;5.95;;;18.40;75.10;;;;;;5075390;28;20028;-66
2021/05/19 12:29:50;;;;;;;10.77;6.40;;;18.50;74.80;;;;;;5068039;28;20138;-65
2021/05/19 12:32:28;;;;;;;6.53;5.68;;;18.60;74.90;;;;;;5074304;28;20345;-65
2021/05/19 12:35:16;;;;;;;6.47;5.35;;;18.70;74.80;;;;;;5074993;28;20024;-64
2021/05/19 12:37:48;;;;;;;7.43;5.53;;;18.70;74.20;;;;;;5068275;28;20144;-65
2021/05/19 12:40:17;;;;;;;7.88;5.13;;;18.70;73.80;;;;;;5072675;28;22162;-66
2021/05/19 12:42:46;;;;;;;7.47;5.03;;;18.70;73.70;;;;;;5076323;28;20496;-64
2021/05/19 12:45:21;;;;;;;6.75;5.13;;;18.70;73.60;;;;;;5072265;28;20519;-65
2021/05/19 12:48:01;;;;;;;7.18;5.40;;;18.80;73.50;;;;;;5077342;28;20578;-66
2021/05/19 12:50:39;;;;;;;8.75;6.13;;;18.80;73.40;;;;;;5080905;28;20028;-66
2021/05/19 12:53:05;;;;;;;7.20;5.88;;;18.80;73.40;;;;;;5068346;28;20088;-65
2021/05/19 12:55:31;;;;;;;7.10;5.55;;;18.80;73.50;;;;;;5070276;28;20028;-66
2021/05/19 12:58:08;;;;;;;9.07;6.10;;;18.80;73.20;;;;;;5077216;28;20081;-67
2021/05/19 13:00:34;;;;;;;6.93;5.30;;;18.80;73.40;;;;;;5068875;28;20073;-65
2021/05/19 13:02:59;;;;;;;6.72;5.00;;;18.90;73.30;;;;;;5073220;28;20039;-66
2021/05/19 13:05:30;;;;;;;8.88;5.80;;;18.90;72.80;;;;;;5068587;28;20446;-65
2021/05/19 13:07:56;;;;;;;6.83;5.80;;;18.90;72.70;;;;;;5074319;28;20093;-65
2021/05/19 13:10:36;;;;;;;7.15;5.43;;;18.90;73.00;;;;;;5072842;28;20036;-65
2021/05/19 13:13:08;;;;;;;6.47;5.60;;;18.90;72.90;;;;;;5075250;28;20024;-64
2021/05/19 13:16:31;;;;;;;6.80;5.25;;;19.00;73.10;;;;;;5073982;28;20445;-66
2021/05/19 13:21:47;;;;;;;8.10;5.32;;;18.90;72.90;;;;;;5075356;28;20038;-63
2021/05/19 13:24:14;;;;;;;7.18;4.88;;;19.00;73.10;;;;;;5073297;28;20032;-62
2021/05/19 13:26:47;;;;;;;5.60;4.35;;;18.90;73.30;;;;;;5066740;28;20086;-63
2021/05/19 13:29:15;;;;;;;6.03;4.13;;;19.00;73.50;;;;;;5078586;28;20028;-64
2021/05/19 13:36:45;;;;;;;7.38;4.53;;;18.80;73.60;;;;;;5071677;28;20028;-64
2021/05/19 13:39:20;;;;;;;6.15;4.75;;;18.80;73.70;;;;;;5056101;28;20024;-67
2021/05/19 13:41:48;;;;;;;6.88;5.28;;;18.80;73.30;;;;;;5052040;28;20143;-66
2021/05/19 13:44:14;;;;;;;8.02;5.93;;;18.80;73.40;;;;;;5070577;28;20581;-65
2021/05/19 13:46:42;;;;;;;7.50;5.57;;;18.80;73.60;;;;;;5076671;28;20701;-66
2021/05/19 13:49:27;;;;;;;6.70;5.43;;;18.80;73.30;;;;;;5066304;28;20067;-67
2021/05/19 13:51:57;;;;;;;6.70;6.00;;;18.80;72.20;;;;;;5060487;28;20098;-66
2021/05/19 13:54:23;;;;;;;7.07;5.90;;;18.80;72.30;;;;;;5073642;28;20119;-66
2021/05/19 13:56:49;;;;;;;7.32;5.00;;;18.80;72.10;;;;;;5072340;28;20030;-66
2021/05/19 13:59:15;;;;;;;6.70;5.43;;;18.90;72.20;;;;;;5053711;28;20024;-67
2021/05/19 14:01:41;;;;;;;5.35;4.65;;;18.80;72.10;;;;;;5062841;28;20032;-67
2021/05/19 14:04:07;;;;;;;5.55;4.63;;;18.80;72.20;;;;;;5060734;28;20143;-65
2021/05/19 14:06:34;;;;;;;6.72;4.40;;;18.80;72.50;;;;;;5074474;28;20058;-66
2021/05/19 14:09:00;;;;;;;5.68;4.00;;;18.80;73.20;;;;;;5066929;28;20150;-67
2021/05/19 14:11:28;;;;;;;6.00;3.80;;;18.80;73.20;;;;;;5067267;28;20039;-65
2021/05/19 14:27:27;;;;;;;5.97;4.75;;;18.60;73.90;;;;;;5072191;28;20100;-65
2021/05/19 14:29:52;;;;;;;8.17;4.60;;;18.60;73.80;;;;;;5065688;28;20044;-66
2021/05/19 14:32:22;;;;;;;5.50;4.10;;;18.60;74.00;;;;;;5063948;28;20032;-67
2021/05/19 14:34:52;;;;;;;6.38;4.32;;;18.70;74.10;;;;;;5067569;28;20539;-66
2021/05/19 14:43:24;;;;;;;5.22;4.30;;;18.70;74.00;;;;;;5072343;28;20059;-65
2021/05/19 14:45:49;;;;;;;5.13;4.15;;;18.80;73.60;;;;;;5072094;28;20121;-65
2021/05/19 15:01:44;;;;;;;7.20;6.35;;;19.00;74.00;;;;;;5078199;28;20077;-65
2021/05/19 15:04:10;;;;;;;6.93;6.00;;;19.00;73.90;;;;;;5053528;28;20463;-65
2021/05/19 15:06:35;;;;;;;5.53;4.85;;;19.00;73.80;;;;;;5073556;28;20081;-64
2021/05/19 15:09:03;;;;;;;8.85;5.60;;;19.10;73.90;;;;;;5077117;28;20515;-65
2021/05/19 15:11:29;;;;;;;7.35;5.75;;;19.10;73.80;;;;;;5074097;28;20576;-66
2021/05/19 15:13:55;;;;;;;9.00;5.43;;;19.10;73.80;;;;;;5072477;28;20028;-66
2021/05/19 15:16:21;;;;;;;6.60;5.35;;;19.20;73.90;;;;;;5069685;28;20134;-65
2021/05/19 15:18:47;;;;;;;9.70;6.18;;;19.20;73.70;;;;;;5072171;28;20170;-66
2021/05/19 15:21:14;;;;;;;10.05;6.50;;;19.30;73.50;;;;;;5075433;28;20106;-66
2021/05/19 15:23:41;;;;;;;7.63;6.07;;;19.40;73.40;;;;;;5073994;28;20032;-65
2021/05/19 15:26:07;;;;;;;4.85;2.70;;;19.40;73.40;;;;;;5070564;28;20653;-66
2021/05/19 15:28:33;;;;;;;3.10;2.30;;;19.50;72.20;;;;;;5069742;28;20036;-66
2021/05/19 15:30:59;;;;;;;1.98;1.88;;;19.40;70.80;;;;;;5074792;28;20143;-65
2021/05/19 15:33:25;;;;;;;1.90;1.80;;;19.30;70.30;;;;;;5077649;28;20035;-65
2021/05/19 15:35:51;;;;;;;2.00;1.83;;;19.20;70.00;;;;;;5075999;28;20039;-68
2021/05/19 15:38:18;;;;;;;3.05;1.80;;;19.10;69.80;;;;;;5077871;28;20032;-66
2021/05/19 15:40:44;;;;;;;1.95;1.80;;;19.00;70.00;;;;;;5075421;28;20095;-66
2021/05/19 15:43:11;;;;;;;2.30;1.88;;;18.90;70.30;;;;;;5075495;28;20070;-66
2021/05/19 15:45:37;;;;;;;3.58;1.80;;;18.90;70.40;;;;;;5075080;28;20124;-67
2021/05/19 15:48:06;;;;;;;1.92;1.70;;;18.80;70.80;;;;;;5078266;28;20036;-66
2021/05/19 15:50:32;;;;;;;2.35;2.05;;;18.70;71.20;;;;;;5082579;28;20394;-61
2021/05/19 15:53:00;;;;;;;3.75;2.10;;;18.60;71.70;;;;;;5082698;28;20058;-66
2021/05/19 15:55:27;;;;;;;3.20;2.00;;;18.60;72.10;;;;;;5078407;28;20032;-64
2021/05/19 15:57:53;;;;;;;4.90;2.17;;;18.50;72.20;;;;;;5080073;28;20139;-66
2021/05/19 16:00:19;;;;;;;3.03;2.25;;;18.40;72.50;;;;;;5082358;28;20110;-66
2021/05/19 16:02:45;;;;;;;3.60;1.83;;;18.40;72.80;;;;;;5078966;28;20097;-66
2021/05/19 16:05:12;;;;;;;3.17;1.95;;;18.30;73.00;;;;;;5082647;28;20036;-66
2021/05/19 16:07:38;;;;;;;1.75;1.60;;;18.30;73.40;;;;;;5082107;28;20085;-66
2021/05/19 16:10:06;;;;;;;2.30;2.10;;;18.30;73.40;;;;;;5080672;28;20032;-66
2021/05/19 16:12:32;;;;;;;3.60;2.38;;;18.20;73.30;;;;;;5078073;28;20055;-66
2021/05/19 16:14:58;;;;;;;2.30;2.10;;;18.20;73.40;;;;;;5082658;28;20822;-66
2021/05/19 16:17:24;;;;;;;1.67;1.58;;;18.10;73.50;;;;;;5076721;28;20039;-66
2021/05/19 16:19:50;;;;;;;1.80;1.70;;;18.10;73.60;;;;;;5081330;28;20368;-66
2021/05/19 16:22:15;;;;;;;2.30;1.92;;;18.00;73.70;;;;;;5079261;28;20063;-66
2021/05/19 16:24:41;;;;;;;2.25;2.05;;;18.10;74.10;;;;;;5078059;28;20035;-66
2021/05/19 16:27:07;;;;;;;1.92;1.67;;;18.00;74.20;;;;;;5078472;28;20082;-66
2021/05/19 16:36:41;;;;;;;1.85;1.75;;;17.90;75.10;;;;;;5085978;28;20407;-66
2021/05/19 16:39:11;;;;;;;2.10;1.95;;;17.80;76.00;;;;;;5088094;28;20023;-66
2021/05/19 16:41:38;;;;;;;2.08;1.88;;;17.80;75.60;;;;;;5077432;28;20027;-66
2021/05/19 16:44:04;;;;;;;2.03;1.80;;;17.80;75.70;;;;;;5077185;28;20164;-66
2021/05/19 16:46:31;;;;;;;2.33;1.77;;;17.80;76.10;;;;;;5078094;28;20028;-66
2021/05/19 16:49:04;;;;;;;3.38;1.95;;;17.80;76.10;;;;;;5079994;28;20042;-66
2021/05/19 16:51:53;;;;;;;4.38;2.45;;;17.80;76.20;;;;;;5085651;28;20361;-66
2021/05/19 16:54:22;;;;;;;3.03;2.10;;;17.80;76.60;;;;;;5074644;28;20434;-66
2021/05/19 16:56:48;;;;;;;2.95;2.20;;;17.80;76.80;;;;;;5089481;28;20016;-66
2021/05/19 16:59:15;;;;;;;3.33;2.40;;;17.80;77.10;;;;;;5089257;28;20039;-66
2021/05/19 17:06:54;;;;;;;4.18;2.88;;;17.80;77.40;;;;;;5084223;28;20528;-66
2021/05/19 17:09:21;;;;;;;3.13;2.83;;;17.90;77.60;;;;;;5088705;28;20164;-66
2021/05/19 17:11:48;;;;;;;3.65;3.00;;;17.90;77.60;;;;;;5091015;28;20016;-66
2021/05/19 17:14:13;;;;;;;3.78;3.13;;;17.90;77.90;;;;;;5086310;28;20039;-66
2021/05/19 17:16:40;;;;;;;3.20;2.58;;;17.90;77.90;;;;;;5088488;28;20020;-66
2021/05/19 17:19:06;;;;;;;3.20;2.90;;;17.90;77.80;;;;;;5090581;28;20019;-66
2021/05/19 17:21:33;;;;;;;5.05;2.50;;;17.90;77.70;;;;;;5090851;28;20034;-66
2021/05/19 17:23:59;;;;;;;3.22;2.80;;;17.90;77.90;;;;;;5071403;28;20032;-66
2021/05/19 17:26:26;;;;;;;2.97;2.67;;;17.90;77.80;;;;;;5088742;28;20103;-66
2021/05/19 17:28:52;;;;;;;4.75;3.20;;;17.90;77.90;;;;;;5088126;28;20391;-66
2021/05/19 17:31:18;;;;;;;3.20;2.90;;;17.90;77.80;;;;;;5083996;28;20041;-67
2021/05/19 17:33:44;;;;;;;4.22;3.17;;;17.80;77.60;;;;;;5091709;28;20028;-67
2021/05/19 17:36:17;;;;;;;3.42;3.10;;;17.80;77.60;;;;;;5083693;28;20433;-67
2021/05/19 17:38:44;;;;;;;3.53;2.72;;;17.80;77.50;;;;;;5087413;28;20107;-67
2021/05/19 17:41:09;;;;;;;3.17;2.25;;;17.80;77.60;;;;;;5089734;28;20062;-67
2021/05/19 17:43:35;;;;;;;4.88;2.50;;;17.80;77.80;;;;;;5090369;28;20075;-67
2021/05/19 17:46:01;;;;;;;4.05;2.35;;;17.70;77.90;;;;;;5086706;28;20040;-67
2021/05/19 17:48:27;;;;;;;2.65;2.13;;;17.70;77.80;;;;;;5084505;28;20457;-67
2021/05/19 17:50:52;;;;;;;3.45;2.42;;;17.70;77.90;;;;;;5085520;28;20031;-67
2021/05/19 17:53:18;;;;;;;3.22;2.40;;;17.70;77.70;;;;;;5085691;28;20024;-67
2021/05/19 17:55:44;;;;;;;2.63;2.20;;;17.60;77.30;;;;;;5088378;28;20682;-67
2021/05/19 17:58:10;;;;;;;3.38;2.33;;;17.60;77.20;;;;;;5087971;28;20357;-68
2021/05/19 18:00:36;;;;;;;2.22;1.95;;;17.60;77.00;;;;;;5086702;28;20679;-67
2021/05/19 18:03:04;;;;;;;1.77;1.67;;;17.60;76.70;;;;;;5089535;28;20375;-66
2021/05/19 18:05:29;;;;;;;2.20;2.00;;;17.50;76.70;;;;;;5086459;28;20020;-66
2021/05/19 18:07:55;;;;;;;2.25;1.65;;;17.50;76.60;;;;;;5091604;28;20016;-65
2021/05/19 18:10:21;;;;;;;4.03;1.95;;;17.50;76.30;;;;;;5081180;28;20036;-66
2021/05/19 18:12:48;;;;;;;3.30;2.63;;;17.50;76.40;;;;;;5083461;28;20028;-67
2021/05/19 18:15:14;;;;;;;6.35;3.03;;;17.50;76.60;;;;;;5090118;28;20028;-67
2021/05/19 18:17:40;;;;;;;4.53;3.08;;;17.50;77.20;;;;;;5087881;28;20016;-67
2021/05/19 18:20:06;;;;;;;3.90;3.30;;;17.50;76.70;;;;;;5088723;28;20031;-68
2021/05/19 18:22:32;;;;;;;5.07;2.85;;;17.50;76.80;;;;;;5086787;28;20080;-67
2021/05/19 18:24:57;;;;;;;2.40;2.20;;;17.50;76.70;;;;;;5081856;28;20476;-67
2021/05/19 18:27:23;;;;;;;2.67;2.45;;;17.50;76.50;;;;;;5089187;28;20054;-67
2021/05/19 18:30:03;;;;;;;2.95;2.47;;;17.50;76.20;;;;;;5086504;28;20077;-67
2021/05/19 18:37:27;;;;;;;2.50;2.30;;;17.30;76.70;;;;;;5092898;28;20028;-67
2021/05/19 18:39:52;;;;;;;3.45;2.40;;;17.30;76.90;;;;;;5087752;28;20065;-68
2021/05/19 18:42:18;;;;;;;3.80;2.72;;;17.30;77.10;;;;;;5090447;28;20028;-68
2021/05/19 18:44:44;;;;;;;3.38;3.05;;;17.20;77.10;;;;;;5088351;28;20079;-68
2021/05/19 18:47:13;;;;;;;4.28;3.70;;;17.20;77.30;;;;;;5090442;28;20024;-67
2021/05/19 18:49:43;;;;;;;4.65;3.15;;;17.20;77.70;;;;;;5088853;28;20028;-68
2021/05/19 18:52:10;;;;;;;3.08;2.78;;;17.20;77.60;;;;;;5089338;28;20368;-67
2021/05/19 18:54:36;;;;;;;3.13;2.83;;;17.10;77.80;;;;;;5090021;28;20025;-68
2021/05/19 18:57:03;;;;;;;3.80;3.13;;;17.10;77.90;;;;;;5093851;28;20452;-67
2021/05/19 18:59:29;;;;;;;3.58;2.95;;;17.10;78.00;;;;;;5095090;28;20020;-68
2021/05/19 19:02:01;;;;;;;3.10;2.80;;;17.10;78.10;;;;;;5091318;28;20065;-67
2021/05/19 19:04:27;;;;;;;2.72;2.53;;;17.00;78.20;;;;;;5093599;28;20659;-67
2021/05/19 19:06:53;;;;;;;3.45;3.10;;;17.00;78.20;;;;;;5092969;28;20063;-68
2021/05/19 19:09:20;;;;;;;4.15;3.00;;;17.00;78.30;;;;;;5091967;28;20092;-67
2021/05/19 19:11:50;;;;;;;3.30;2.83;;;17.00;78.50;;;;;;5085242;28;21962;-67
2021/05/19 19:14:19;;;;;;;3.92;2.53;;;16.90;78.60;;;;;;5088144;28;20480;-67
2021/05/19 19:16:49;;;;;;;3.50;3.20;;;16.90;78.50;;;;;;5095014;28;20486;-67
2021/05/19 19:19:15;;;;;;;3.65;3.20;;;16.90;78.80;;;;;;5094912;28;20461;-67
2021/05/19 19:21:42;;;;;;;4.10;3.50;;;16.80;78.90;;;;;;5090423;28;20062;-67
2021/05/19 19:24:09;;;;;;;3.38;2.75;;;16.80;79.10;;;;;;5092161;28;20024;-67
2021/05/19 19:26:35;;;;;;;3.67;2.72;;;16.80;79.20;;;;;;5090372;28;20107;-67
2021/05/19 19:29:00;;;;;;;2.75;2.50;;;16.80;79.40;;;;;;5093860;28;20165;-67
2021/05/19 19:31:26;;;;;;;2.83;2.58;;;16.70;79.50;;;;;;5089736;28;20046;-68
2021/05/19 19:33:58;;;;;;;2.20;2.00;;;16.70;79.60;;;;;;5069183;28;20034;-66
2021/05/19 19:36:23;;;;;;;2.10;2.00;;;16.70;79.80;;;;;;5083352;28;20430;-66
2021/05/19 19:38:49;;;;;;;1.88;1.77;;;16.70;79.70;;;;;;5068916;28;20142;-66
2021/05/19 19:41:15;;;;;;;1.98;1.88;;;16.70;79.60;;;;;;5089823;28;20028;-66
2021/05/19 19:43:42;;;;;;;2.13;1.92;;;16.70;79.70;;;;;;5085925;28;20483;-66
2021/05/19 19:46:07;;;;;;;3.63;2.45;;;16.60;79.70;;;;;;5090940;28;20024;-66
2021/05/19 19:48:34;;;;;;;1.83;1.63;;;16.60;79.90;;;;;;5080184;28;20637;-66
2021/05/19 19:51:00;;;;;;;2.30;2.10;;;16.60;79.70;;;;;;5089864;28;20012;-66
2021/05/19 19:53:29;;;;;;;1.88;1.77;;;16.60;79.90;;;;;;5089861;28;20035;-66
2021/05/19 19:55:55;;;;;;;2.42;2.22;;;16.60;79.90;;;;;;5090750;28;20085;-66
2021/05/19 19:58:21;;;;;;;2.13;1.90;;;16.60;80.20;;;;;;5092568;28;20040;-66